CES5402 ZULS-ZSPD
Flight info
| Callsign | CES5402 |
|---|---|
| Flight time | 3h 32m |
| Altitude | 35100 |
| Route | DUMIX W9 KDJ V69 HLC/K0833S1130 V69 WFX B213 WHA R343 SASAN |
| Aircraft | A320/M-SDE2E3FGILRWXY/LB2 |
Departure
| Time | 2026-04-15 00:28 |
|---|---|
| Airport | Lhasa Gonggar International Airport (ZULS) |
Arrival
| Time | 2026-04-15 04:00 |
|---|---|
| Airport | Shanghai Pudong International Airport (ZSPD) |
| Time | Latitude | Longitude | Altitude | Speed | Heading |
|---|---|---|---|---|---|
| 2026-04-15 00:13 | 29.29300 | 90.89331 | 11624 ft | 0 kts | 110° |
| 2026-04-15 00:20 | 29.29302 | 90.89326 | 11624 ft | 2 kts | 110° |
| 2026-04-15 00:20 | 29.29308 | 90.89306 | 11615 ft | 3 kts | 110° |
| 2026-04-15 00:20 | 29.29316 | 90.89284 | 11625 ft | 3 kts | 111° |
| 2026-04-15 00:20 | 29.29323 | 90.89262 | 11614 ft | 3 kts | 112° |
| 2026-04-15 00:21 | 29.29328 | 90.89248 | 11613 ft | 1 kts | 113° |
| 2026-04-15 00:21 | 29.29330 | 90.89244 | 11619 ft | 0 kts | 113° |
| 2026-04-15 00:23 | 29.29329 | 90.89246 | 11628 ft | 1 kts | 113° |
| 2026-04-15 00:23 | 29.29337 | 90.89260 | 11618 ft | 4 kts | 43° |
| 2026-04-15 00:24 | 29.29374 | 90.89277 | 11614 ft | 8 kts | 19° |
| 2026-04-15 00:24 | 29.29435 | 90.89300 | 11614 ft | 10 kts | 18° |
| 2026-04-15 00:24 | 29.29495 | 90.89321 | 11615 ft | 7 kts | 8° |
| 2026-04-15 00:24 | 29.29515 | 90.89278 | 11620 ft | 7 kts | 269° |
| 2026-04-15 00:25 | 29.29515 | 90.89221 | 11627 ft | 7 kts | 278° |
| 2026-04-15 00:25 | 29.29559 | 90.89196 | 11619 ft | 9 kts | 355° |
| 2026-04-15 00:25 | 29.29628 | 90.89195 | 11623 ft | 11 kts | 0° |
| 2026-04-15 00:25 | 29.29707 | 90.89195 | 11626 ft | 12 kts | 360° |
| 2026-04-15 00:26 | 29.29765 | 90.89202 | 11614 ft | 6 kts | 32° |
| 2026-04-15 00:26 | 29.29777 | 90.89248 | 11625 ft | 4 kts | 88° |
| 2026-04-15 00:26 | 29.29777 | 90.89250 | 11625 ft | 0 kts | 88° |
| 2026-04-15 00:27 | 29.29779 | 90.89371 | 11613 ft | 44 kts | 89° |
| 2026-04-15 00:27 | 29.29788 | 90.89961 | 11628 ft | 102 kts | 89° |
| 2026-04-15 00:27 | 29.29804 | 90.90964 | 11626 ft | 148 kts | 89° |
| 2026-04-15 00:28 | 29.29824 | 90.92299 | 11615 ft | 186 kts | 89° |
| 2026-04-15 00:28 | 29.29848 | 90.93845 | 11996 ft | 192 kts | 89° |
| 2026-04-15 00:28 | 29.29873 | 90.95371 | 12668 ft | 192 kts | 89° |
| 2026-04-15 00:28 | 29.29897 | 90.96875 | 13365 ft | 191 kts | 89° |
| 2026-04-15 00:29 | 29.29919 | 90.98403 | 13929 ft | 192 kts | 89° |
| 2026-04-15 00:29 | 29.29979 | 90.99957 | 14388 ft | 194 kts | 82° |
| 2026-04-15 00:29 | 29.30244 | 91.01474 | 14882 ft | 196 kts | 73° |
| 2026-04-15 00:29 | 29.30743 | 91.02988 | 15101 ft | 211 kts | 63° |
| 2026-04-15 00:30 | 29.31407 | 91.04558 | 15232 ft | 226 kts | 69° |
| 2026-04-15 00:30 | 29.31833 | 91.06355 | 15363 ft | 242 kts | 82° |
| 2026-04-15 00:30 | 29.31906 | 91.08310 | 15487 ft | 257 kts | 95° |
| 2026-04-15 00:30 | 29.31556 | 91.10403 | 15601 ft | 274 kts | 107° |
| 2026-04-15 00:31 | 29.31031 | 91.12576 | 15731 ft | 292 kts | 103° |
| 2026-04-15 00:31 | 29.30592 | 91.14927 | 15860 ft | 311 kts | 99° |
| 2026-04-15 00:31 | 29.30282 | 91.17418 | 16279 ft | 317 kts | 96° |
| 2026-04-15 00:31 | 29.30094 | 91.19925 | 16944 ft | 316 kts | 94° |
| 2026-04-15 00:32 | 29.29912 | 91.22446 | 17509 ft | 318 kts | 94° |
| 2026-04-15 00:32 | 29.29725 | 91.24981 | 18054 ft | 321 kts | 95° |
| 2026-04-15 00:32 | 29.29533 | 91.27547 | 18538 ft | 325 kts | 95° |
| 2026-04-15 00:32 | 29.29337 | 91.30133 | 18993 ft | 328 kts | 95° |
| 2026-04-15 00:33 | 29.29145 | 91.32716 | 19446 ft | 331 kts | 95° |
| 2026-04-15 00:33 | 29.28950 | 91.35356 | 19922 ft | 334 kts | 95° |
| 2026-04-15 00:33 | 29.28752 | 91.38020 | 20380 ft | 337 kts | 95° |
| 2026-04-15 00:33 | 29.28550 | 91.40740 | 20826 ft | 340 kts | 95° |
| 2026-04-15 00:34 | 29.28350 | 91.43421 | 21251 ft | 344 kts | 95° |
| 2026-04-15 00:34 | 29.28143 | 91.46197 | 21671 ft | 347 kts | 95° |
| 2026-04-15 00:34 | 29.27935 | 91.48958 | 22083 ft | 350 kts | 95° |
| 2026-04-15 00:34 | 29.27722 | 91.51748 | 22490 ft | 353 kts | 95° |
| 2026-04-15 00:35 | 29.27495 | 91.54521 | 22879 ft | 356 kts | 95° |
| 2026-04-15 00:35 | 29.27252 | 91.57356 | 23285 ft | 359 kts | 96° |
| 2026-04-15 00:35 | 29.27002 | 91.60213 | 23662 ft | 362 kts | 96° |
| 2026-04-15 00:35 | 29.26748 | 91.63131 | 23996 ft | 365 kts | 96° |
| 2026-04-15 00:36 | 29.26495 | 91.66037 | 24328 ft | 368 kts | 96° |
| 2026-04-15 00:36 | 29.26241 | 91.68959 | 24664 ft | 370 kts | 96° |
| 2026-04-15 00:36 | 29.25987 | 91.71904 | 24995 ft | 373 kts | 96° |
| 2026-04-15 00:36 | 29.25733 | 91.74876 | 25276 ft | 378 kts | 96° |
| 2026-04-15 00:37 | 29.25501 | 91.77910 | 25398 ft | 388 kts | 94° |
| 2026-04-15 00:37 | 29.25360 | 91.81034 | 25526 ft | 397 kts | 92° |
| 2026-04-15 00:37 | 29.25283 | 91.84230 | 25652 ft | 406 kts | 91° |
| 2026-04-15 00:37 | 29.25234 | 91.87503 | 25775 ft | 416 kts | 91° |
| 2026-04-15 00:38 | 29.25205 | 91.89708 | 25862 ft | 422 kts | 91° |
| 2026-04-15 00:38 | 29.25149 | 91.93104 | 25986 ft | 431 kts | 91° |
| 2026-04-15 00:38 | 29.25076 | 91.96570 | 26109 ft | 439 kts | 91° |
| 2026-04-15 00:38 | 29.24948 | 92.01301 | 26278 ft | 450 kts | 92° |
| 2026-04-15 00:39 | 29.24876 | 92.03687 | 26361 ft | 455 kts | 92° |
| 2026-04-15 00:39 | 29.24764 | 92.07340 | 26491 ft | 463 kts | 92° |
| 2026-04-15 00:39 | 29.24651 | 92.11049 | 26615 ft | 470 kts | 92° |
| 2026-04-15 00:39 | 29.24540 | 92.14809 | 26840 ft | 474 kts | 92° |
| 2026-04-15 00:40 | 29.24430 | 92.18587 | 27181 ft | 475 kts | 92° |
| 2026-04-15 00:40 | 29.24289 | 92.23601 | 27687 ft | 476 kts | 92° |
| 2026-04-15 00:40 | 29.24222 | 92.26159 | 27962 ft | 476 kts | 92° |
| 2026-04-15 00:40 | 29.24125 | 92.29947 | 28376 ft | 476 kts | 92° |
| 2026-04-15 00:41 | 29.24029 | 92.33732 | 28806 ft | 476 kts | 92° |
| 2026-04-15 00:41 | 29.23928 | 92.37518 | 29232 ft | 476 kts | 92° |
| 2026-04-15 00:41 | 29.23824 | 92.41304 | 29616 ft | 476 kts | 92° |
| 2026-04-15 00:41 | 29.23719 | 92.45089 | 30028 ft | 475 kts | 92° |
| 2026-04-15 00:42 | 29.23610 | 92.48870 | 30362 ft | 475 kts | 92° |
| 2026-04-15 00:42 | 29.23522 | 92.52659 | 30694 ft | 476 kts | 89° |
| 2026-04-15 00:42 | 29.23806 | 92.56437 | 31022 ft | 477 kts | 79° |
| 2026-04-15 00:42 | 29.24593 | 92.60117 | 31336 ft | 477 kts | 70° |
| 2026-04-15 00:43 | 29.25859 | 92.63616 | 31661 ft | 475 kts | 61° |
| 2026-04-15 00:43 | 29.27470 | 92.66912 | 31977 ft | 475 kts | 58° |
| 2026-04-15 00:43 | 29.29106 | 92.70198 | 32291 ft | 475 kts | 58° |
| 2026-04-15 00:43 | 29.30736 | 92.73486 | 32626 ft | 475 kts | 58° |
| 2026-04-15 00:44 | 29.32369 | 92.76783 | 32996 ft | 475 kts | 58° |
| 2026-04-15 00:44 | 29.33997 | 92.80078 | 33370 ft | 475 kts | 58° |
| 2026-04-15 00:44 | 29.35625 | 92.83376 | 33671 ft | 476 kts | 58° |
| 2026-04-15 00:44 | 29.37254 | 92.86678 | 34020 ft | 476 kts | 58° |
| 2026-04-15 00:45 | 29.38882 | 92.89981 | 34330 ft | 476 kts | 58° |
| 2026-04-15 00:45 | 29.40513 | 92.93290 | 34574 ft | 477 kts | 58° |
| 2026-04-15 00:45 | 29.42147 | 92.96603 | 34831 ft | 478 kts | 58° |
| 2026-04-15 00:45 | 29.43783 | 92.99924 | 35068 ft | 478 kts | 58° |
| 2026-04-15 00:46 | 29.45422 | 93.03253 | 35190 ft | 480 kts | 58° |
| 2026-04-15 00:46 | 29.48749 | 93.10018 | 35228 ft | 493 kts | 58° |
| 2026-04-15 00:47 | 29.52144 | 93.16932 | 35232 ft | 500 kts | 58° |
| 2026-04-15 00:47 | 29.55555 | 93.23899 | 35223 ft | 501 kts | 58° |
| 2026-04-15 00:48 | 29.58964 | 93.30878 | 35224 ft | 501 kts | 58° |
| 2026-04-15 00:48 | 29.62362 | 93.37870 | 35213 ft | 501 kts | 58° |
| 2026-04-15 00:49 | 29.65758 | 93.44863 | 35214 ft | 501 kts | 58° |
| 2026-04-15 00:49 | 29.69168 | 93.51861 | 35223 ft | 501 kts | 58° |
| 2026-04-15 00:50 | 29.72576 | 93.58866 | 35223 ft | 502 kts | 59° |
| 2026-04-15 00:50 | 29.75976 | 93.65885 | 35216 ft | 503 kts | 59° |
| 2026-04-15 00:51 | 29.79374 | 93.72927 | 35227 ft | 504 kts | 59° |
| 2026-04-15 00:51 | 29.82772 | 93.79979 | 35223 ft | 504 kts | 59° |
| 2026-04-15 00:52 | 29.86174 | 93.87037 | 35228 ft | 504 kts | 59° |
| 2026-04-15 00:52 | 29.89353 | 93.94242 | 35229 ft | 506 kts | 69° |
| 2026-04-15 00:53 | 29.91150 | 94.02083 | 35228 ft | 507 kts | 77° |
| 2026-04-15 00:53 | 29.92713 | 94.10006 | 35224 ft | 507 kts | 77° |
| 2026-04-15 00:54 | 29.94270 | 94.17884 | 35222 ft | 507 kts | 77° |
| 2026-04-15 00:54 | 29.95836 | 94.25814 | 35224 ft | 508 kts | 77° |
| 2026-04-15 00:55 | 29.97395 | 94.33754 | 35225 ft | 508 kts | 77° |
| 2026-04-15 00:55 | 29.98953 | 94.41703 | 35230 ft | 508 kts | 77° |
| 2026-04-15 00:56 | 30.00502 | 94.49655 | 35235 ft | 508 kts | 77° |
| 2026-04-15 00:56 | 30.02040 | 94.57620 | 35236 ft | 508 kts | 77° |
| 2026-04-15 00:57 | 30.03578 | 94.65581 | 35238 ft | 509 kts | 77° |
| 2026-04-15 00:57 | 30.05114 | 94.73546 | 35244 ft | 509 kts | 77° |
| 2026-04-15 00:58 | 30.06645 | 94.81509 | 35243 ft | 508 kts | 77° |
| 2026-04-15 00:58 | 30.08174 | 94.89474 | 35245 ft | 508 kts | 77° |
| 2026-04-15 00:59 | 30.09692 | 94.97442 | 35248 ft | 508 kts | 77° |
| 2026-04-15 00:59 | 30.11245 | 95.05398 | 35239 ft | 508 kts | 76° |
| 2026-04-15 01:00 | 30.12840 | 95.13339 | 35245 ft | 508 kts | 77° |
| 2026-04-15 01:00 | 30.14432 | 95.21289 | 35246 ft | 508 kts | 77° |
| 2026-04-15 01:01 | 30.15998 | 95.29237 | 35248 ft | 507 kts | 77° |
| 2026-04-15 01:01 | 30.17558 | 95.37184 | 35248 ft | 507 kts | 77° |
| 2026-04-15 01:02 | 30.19123 | 95.45127 | 35254 ft | 508 kts | 77° |
| 2026-04-15 01:02 | 30.20677 | 95.53085 | 35246 ft | 507 kts | 77° |
| 2026-04-15 01:03 | 30.22224 | 95.61027 | 35249 ft | 507 kts | 77° |
| 2026-04-15 01:03 | 30.23763 | 95.68976 | 35246 ft | 506 kts | 78° |
| 2026-04-15 01:04 | 30.25297 | 95.76921 | 35233 ft | 506 kts | 78° |
| 2026-04-15 01:04 | 30.26833 | 95.84877 | 35243 ft | 507 kts | 78° |
| 2026-04-15 01:05 | 30.28367 | 95.92831 | 35248 ft | 507 kts | 78° |
| 2026-04-15 01:05 | 30.29881 | 96.00734 | 35241 ft | 507 kts | 78° |
| 2026-04-15 01:06 | 30.31443 | 96.08691 | 35247 ft | 507 kts | 77° |
| 2026-04-15 01:06 | 30.33054 | 96.16638 | 35240 ft | 507 kts | 77° |
| 2026-04-15 01:07 | 30.34653 | 96.24584 | 35237 ft | 507 kts | 77° |
| 2026-04-15 01:07 | 30.36243 | 96.32524 | 35236 ft | 507 kts | 78° |
| 2026-04-15 01:08 | 30.37823 | 96.40478 | 35231 ft | 506 kts | 78° |
| 2026-04-15 01:08 | 30.39388 | 96.48441 | 35235 ft | 507 kts | 78° |
| 2026-04-15 01:09 | 30.40953 | 96.56401 | 35230 ft | 507 kts | 78° |
| 2026-04-15 01:09 | 30.42516 | 96.64372 | 35233 ft | 507 kts | 78° |
| 2026-04-15 01:10 | 30.44074 | 96.72333 | 35240 ft | 507 kts | 78° |
| 2026-04-15 01:10 | 30.45625 | 96.80294 | 35234 ft | 506 kts | 78° |
| 2026-04-15 01:11 | 30.47176 | 96.88264 | 35231 ft | 507 kts | 78° |
| 2026-04-15 01:11 | 30.48722 | 96.96238 | 35230 ft | 507 kts | 78° |
| 2026-04-15 01:12 | 30.50261 | 97.04220 | 35221 ft | 508 kts | 78° |
| 2026-04-15 01:12 | 30.51696 | 97.12236 | 35215 ft | 507 kts | 85° |
| 2026-04-15 01:13 | 30.51678 | 97.20350 | 35211 ft | 503 kts | 98° |
| 2026-04-15 01:13 | 30.51000 | 97.28428 | 35203 ft | 503 kts | 98° |
| 2026-04-15 01:14 | 30.50325 | 97.36509 | 35189 ft | 504 kts | 98° |
| 2026-04-15 01:14 | 30.49660 | 97.44601 | 35181 ft | 504 kts | 98° |
| 2026-04-15 01:15 | 30.48983 | 97.52692 | 35179 ft | 504 kts | 99° |
| 2026-04-15 01:15 | 30.48295 | 97.60781 | 35161 ft | 504 kts | 99° |
| 2026-04-15 01:16 | 30.47605 | 97.68883 | 35173 ft | 506 kts | 99° |
| 2026-04-15 01:16 | 30.46909 | 97.76992 | 35163 ft | 505 kts | 99° |
| 2026-04-15 01:17 | 30.46203 | 97.85100 | 35163 ft | 506 kts | 99° |
| 2026-04-15 01:17 | 30.45142 | 97.97279 | 35170 ft | 506 kts | 99° |
| 2026-04-15 01:18 | 30.44433 | 98.05401 | 35168 ft | 507 kts | 99° |
| 2026-04-15 01:18 | 30.43717 | 98.13532 | 35163 ft | 507 kts | 99° |
| 2026-04-15 01:19 | 30.42989 | 98.21669 | 35164 ft | 508 kts | 99° |
| 2026-04-15 01:19 | 30.42337 | 98.29828 | 35159 ft | 509 kts | 98° |
| 2026-04-15 01:20 | 30.41733 | 98.38001 | 35165 ft | 509 kts | 98° |
| 2026-04-15 01:20 | 30.41110 | 98.46177 | 35162 ft | 510 kts | 98° |
| 2026-04-15 01:21 | 30.40464 | 98.54362 | 35157 ft | 510 kts | 98° |
| 2026-04-15 01:21 | 30.39804 | 98.62545 | 35153 ft | 511 kts | 98° |
| 2026-04-15 01:22 | 30.39142 | 98.70734 | 35154 ft | 511 kts | 98° |
| 2026-04-15 01:22 | 30.38593 | 98.77543 | 35146 ft | 511 kts | 98° |
| 2026-04-15 01:23 | 30.37922 | 98.85745 | 35150 ft | 512 kts | 98° |
| 2026-04-15 01:23 | 30.37245 | 98.93944 | 35150 ft | 512 kts | 98° |
| 2026-04-15 01:24 | 30.36562 | 99.02151 | 35143 ft | 512 kts | 98° |
| 2026-04-15 01:24 | 30.35883 | 99.10365 | 35153 ft | 513 kts | 98° |
| 2026-04-15 01:25 | 30.35194 | 99.18579 | 35156 ft | 513 kts | 98° |
| 2026-04-15 01:25 | 30.34494 | 99.26800 | 35163 ft | 513 kts | 98° |
| 2026-04-15 01:26 | 30.33791 | 99.35021 | 35165 ft | 513 kts | 98° |
| 2026-04-15 01:26 | 30.33088 | 99.43249 | 35173 ft | 514 kts | 98° |
| 2026-04-15 01:27 | 30.32377 | 99.51479 | 35180 ft | 514 kts | 98° |
| 2026-04-15 01:27 | 30.31654 | 99.59718 | 35172 ft | 514 kts | 99° |
| 2026-04-15 01:28 | 30.30923 | 99.67950 | 35170 ft | 515 kts | 99° |
| 2026-04-15 01:28 | 30.30192 | 99.76188 | 35165 ft | 515 kts | 98° |
| 2026-04-15 01:29 | 30.29471 | 99.84426 | 35157 ft | 515 kts | 99° |
| 2026-04-15 01:29 | 30.28731 | 99.92661 | 35145 ft | 515 kts | 99° |
| 2026-04-15 01:30 | 30.27979 | 100.00895 | 35137 ft | 515 kts | 98° |
| 2026-04-15 01:30 | 30.27320 | 100.09146 | 35129 ft | 516 kts | 97° |
| 2026-04-15 01:31 | 30.26746 | 100.17414 | 35125 ft | 516 kts | 97° |
| 2026-04-15 01:31 | 30.26160 | 100.25686 | 35120 ft | 516 kts | 97° |
| 2026-04-15 01:32 | 30.25535 | 100.33948 | 35115 ft | 515 kts | 98° |
| 2026-04-15 01:32 | 30.24889 | 100.42208 | 35110 ft | 516 kts | 98° |
| 2026-04-15 01:33 | 30.24247 | 100.50465 | 35109 ft | 516 kts | 98° |
| 2026-04-15 01:33 | 30.23606 | 100.58730 | 35098 ft | 516 kts | 97° |
| 2026-04-15 01:34 | 30.22962 | 100.66989 | 35098 ft | 516 kts | 98° |
| 2026-04-15 01:34 | 30.22308 | 100.75251 | 35090 ft | 516 kts | 97° |
| 2026-04-15 01:35 | 30.21650 | 100.83510 | 35081 ft | 516 kts | 98° |
| 2026-04-15 01:35 | 30.20991 | 100.91767 | 35086 ft | 516 kts | 98° |
| 2026-04-15 01:36 | 30.20312 | 101.00024 | 35077 ft | 515 kts | 97° |
| 2026-04-15 01:36 | 30.19629 | 101.08275 | 35082 ft | 516 kts | 98° |
| 2026-04-15 01:37 | 30.18957 | 101.16520 | 35085 ft | 515 kts | 98° |
| 2026-04-15 01:37 | 30.18279 | 101.24757 | 35060 ft | 514 kts | 98° |
| 2026-04-15 01:38 | 30.17586 | 101.32986 | 35082 ft | 515 kts | 98° |
| 2026-04-15 01:38 | 30.16886 | 101.41272 | 35088 ft | 515 kts | 98° |
| 2026-04-15 01:39 | 30.16190 | 101.49447 | 35086 ft | 514 kts | 98° |
| 2026-04-15 01:39 | 30.15487 | 101.57675 | 35082 ft | 515 kts | 98° |
| 2026-04-15 01:40 | 30.14785 | 101.65904 | 35077 ft | 515 kts | 98° |
| 2026-04-15 01:40 | 30.14304 | 101.74162 | 35070 ft | 517 kts | 89° |
| 2026-04-15 01:41 | 30.14958 | 101.82434 | 35065 ft | 517 kts | 85° |
| 2026-04-15 01:41 | 30.15641 | 101.90707 | 35071 ft | 517 kts | 85° |
| 2026-04-15 01:42 | 30.16313 | 101.98978 | 35071 ft | 517 kts | 85° |
| 2026-04-15 01:42 | 30.16995 | 102.07239 | 35064 ft | 516 kts | 85° |
| 2026-04-15 01:43 | 30.17665 | 102.15489 | 35066 ft | 515 kts | 85° |
| 2026-04-15 01:43 | 30.18321 | 102.23718 | 35075 ft | 515 kts | 85° |
| 2026-04-15 01:44 | 30.18986 | 102.31963 | 35079 ft | 515 kts | 85° |
| 2026-04-15 01:44 | 30.19640 | 102.40199 | 35065 ft | 515 kts | 85° |
| 2026-04-15 01:45 | 30.20291 | 102.48441 | 35062 ft | 515 kts | 85° |
| 2026-04-15 01:45 | 30.20970 | 102.56697 | 35066 ft | 516 kts | 85° |
| 2026-04-15 01:46 | 30.21663 | 102.64952 | 35055 ft | 516 kts | 85° |
| 2026-04-15 01:46 | 30.22342 | 102.73215 | 35049 ft | 516 kts | 85° |
| 2026-04-15 01:47 | 30.23005 | 102.81477 | 35045 ft | 516 kts | 86° |
| 2026-04-15 01:47 | 30.23662 | 102.89748 | 35040 ft | 517 kts | 85° |
| 2026-04-15 01:48 | 30.24335 | 102.98025 | 35032 ft | 517 kts | 85° |
| 2026-04-15 01:48 | 30.25048 | 103.06300 | 35034 ft | 518 kts | 85° |
| 2026-04-15 01:49 | 30.25766 | 103.14579 | 35029 ft | 517 kts | 85° |
| 2026-04-15 01:49 | 30.26463 | 103.22865 | 35027 ft | 518 kts | 85° |
| 2026-04-15 01:50 | 30.27144 | 103.31164 | 35028 ft | 518 kts | 85° |
| 2026-04-15 01:50 | 30.27812 | 103.39478 | 35037 ft | 519 kts | 85° |
| 2026-04-15 01:51 | 30.28473 | 103.47794 | 35031 ft | 519 kts | 85° |
| 2026-04-15 01:51 | 30.29133 | 103.56114 | 35033 ft | 519 kts | 85° |
| 2026-04-15 01:52 | 30.29790 | 103.64434 | 35032 ft | 519 kts | 84° |
| 2026-04-15 01:52 | 30.31501 | 103.72527 | 35030 ft | 518 kts | 66° |
| 2026-04-15 01:53 | 30.34591 | 103.80043 | 35027 ft | 517 kts | 62° |
| 2026-04-15 01:53 | 30.37723 | 103.87536 | 35031 ft | 517 kts | 62° |
| 2026-04-15 01:54 | 30.40840 | 103.95044 | 35030 ft | 517 kts | 62° |
| 2026-04-15 01:54 | 30.43958 | 104.02550 | 35030 ft | 517 kts | 62° |
| 2026-04-15 01:55 | 30.47070 | 104.10060 | 35032 ft | 517 kts | 63° |
| 2026-04-15 01:55 | 30.50176 | 104.17578 | 35033 ft | 517 kts | 62° |
| 2026-04-15 01:56 | 30.53104 | 104.25203 | 35037 ft | 518 kts | 67° |
| 2026-04-15 01:56 | 30.55606 | 104.33048 | 35039 ft | 519 kts | 70° |
| 2026-04-15 01:57 | 30.57997 | 104.40944 | 35040 ft | 519 kts | 69° |
| 2026-04-15 01:57 | 30.60490 | 104.48798 | 35040 ft | 518 kts | 69° |
| 2026-04-15 01:58 | 30.62807 | 104.56726 | 35040 ft | 519 kts | 72° |
| 2026-04-15 01:58 | 30.64818 | 104.64781 | 35041 ft | 519 kts | 74° |
| 2026-04-15 01:59 | 30.66773 | 104.72855 | 35034 ft | 519 kts | 73° |
| 2026-04-15 01:59 | 30.68804 | 104.80896 | 35041 ft | 519 kts | 72° |
| 2026-04-15 02:00 | 30.70890 | 104.88922 | 35040 ft | 519 kts | 72° |
| 2026-04-15 02:00 | 30.72957 | 104.96950 | 35036 ft | 519 kts | 73° |
| 2026-04-15 02:01 | 30.74998 | 105.04993 | 35033 ft | 518 kts | 73° |
| 2026-04-15 02:01 | 30.77026 | 105.13037 | 35033 ft | 519 kts | 73° |
| 2026-04-15 02:02 | 30.79060 | 105.21088 | 35030 ft | 519 kts | 73° |
| 2026-04-15 02:02 | 30.80749 | 105.27774 | 35036 ft | 519 kts | 73° |
| 2026-04-15 02:03 | 30.82774 | 105.35826 | 35032 ft | 519 kts | 73° |
| 2026-04-15 02:03 | 30.84776 | 105.43886 | 35028 ft | 518 kts | 74° |
| 2026-04-15 02:04 | 30.86567 | 105.52011 | 35027 ft | 518 kts | 76° |
| 2026-04-15 02:04 | 30.88225 | 105.60180 | 35033 ft | 518 kts | 76° |
| 2026-04-15 02:05 | 30.89907 | 105.68339 | 35033 ft | 518 kts | 76° |
| 2026-04-15 02:05 | 30.91639 | 105.76485 | 35029 ft | 518 kts | 75° |
| 2026-04-15 02:06 | 30.93379 | 105.84623 | 35027 ft | 518 kts | 75° |
| 2026-04-15 02:06 | 30.95089 | 105.92766 | 35032 ft | 517 kts | 76° |
| 2026-04-15 02:07 | 30.95938 | 106.01059 | 35030 ft | 516 kts | 93° |
| 2026-04-15 02:07 | 30.94804 | 106.09245 | 35025 ft | 511 kts | 108° |
| 2026-04-15 02:08 | 30.92908 | 106.17218 | 35021 ft | 511 kts | 108° |
| 2026-04-15 02:08 | 30.91018 | 106.25199 | 35019 ft | 511 kts | 108° |
| 2026-04-15 02:09 | 30.89122 | 106.33179 | 35023 ft | 511 kts | 109° |
| 2026-04-15 02:09 | 30.86281 | 106.40653 | 35022 ft | 501 kts | 128° |
| 2026-04-15 02:10 | 30.81885 | 106.46757 | 35017 ft | 487 kts | 143° |
| 2026-04-15 02:10 | 30.76942 | 106.52157 | 35009 ft | 488 kts | 143° |
| 2026-04-15 02:11 | 30.71977 | 106.57540 | 35010 ft | 488 kts | 143° |
| 2026-04-15 02:11 | 30.67009 | 106.62911 | 35017 ft | 488 kts | 143° |
| 2026-04-15 02:12 | 30.62035 | 106.68273 | 35013 ft | 488 kts | 144° |
| 2026-04-15 02:12 | 30.57058 | 106.73629 | 35020 ft | 488 kts | 144° |
| 2026-04-15 02:13 | 30.52100 | 106.79002 | 35025 ft | 488 kts | 144° |
| 2026-04-15 02:13 | 30.47136 | 106.84364 | 35025 ft | 487 kts | 144° |
| 2026-04-15 02:14 | 30.42203 | 106.89672 | 35028 ft | 487 kts | 144° |
| 2026-04-15 02:14 | 30.37237 | 106.95007 | 35033 ft | 487 kts | 144° |
| 2026-04-15 02:15 | 30.32254 | 107.00308 | 35036 ft | 486 kts | 145° |
| 2026-04-15 02:15 | 30.27202 | 107.05495 | 35035 ft | 485 kts | 146° |
| 2026-04-15 02:16 | 30.22129 | 107.10637 | 35039 ft | 485 kts | 146° |
| 2026-04-15 02:16 | 30.17070 | 107.15802 | 35035 ft | 485 kts | 146° |
| 2026-04-15 02:17 | 30.12041 | 107.21011 | 35037 ft | 487 kts | 144° |
| 2026-04-15 02:17 | 30.07167 | 107.26464 | 35032 ft | 489 kts | 142° |
| 2026-04-15 02:18 | 30.02363 | 107.32019 | 35036 ft | 489 kts | 141° |
| 2026-04-15 02:18 | 29.98303 | 107.38436 | 35032 ft | 504 kts | 122° |
| 2026-04-15 02:19 | 29.95849 | 107.46082 | 35032 ft | 512 kts | 111° |
| 2026-04-15 02:19 | 29.93798 | 107.53951 | 35029 ft | 512 kts | 111° |
| 2026-04-15 02:20 | 29.91759 | 107.61819 | 35031 ft | 514 kts | 109° |
| 2026-04-15 02:20 | 29.90889 | 107.70037 | 35029 ft | 521 kts | 90° |
| 2026-04-15 02:21 | 29.92134 | 107.78263 | 35027 ft | 523 kts | 73° |
| 2026-04-15 02:21 | 29.94203 | 107.86309 | 35030 ft | 524 kts | 73° |
| 2026-04-15 02:22 | 29.96242 | 107.94385 | 35041 ft | 525 kts | 73° |
| 2026-04-15 02:23 | 29.99277 | 108.06506 | 35053 ft | 524 kts | 73° |
| 2026-04-15 02:23 | 30.01306 | 108.14584 | 35056 ft | 524 kts | 73° |
| 2026-04-15 02:24 | 30.03338 | 108.22670 | 35063 ft | 525 kts | 74° |
| 2026-04-15 02:24 | 30.05360 | 108.30759 | 35060 ft | 524 kts | 73° |
| 2026-04-15 02:25 | 30.07364 | 108.38797 | 35062 ft | 525 kts | 73° |
| 2026-04-15 02:25 | 30.09398 | 108.46956 | 35064 ft | 525 kts | 74° |
| 2026-04-15 02:26 | 30.11394 | 108.55014 | 35077 ft | 526 kts | 74° |
| 2026-04-15 02:26 | 30.13543 | 108.63082 | 35081 ft | 525 kts | 71° |
| 2026-04-15 02:27 | 30.15936 | 108.71057 | 35077 ft | 525 kts | 70° |
| 2026-04-15 02:27 | 30.18357 | 108.79017 | 35077 ft | 525 kts | 70° |
| 2026-04-15 02:28 | 30.20693 | 108.87017 | 35087 ft | 525 kts | 71° |
| 2026-04-15 02:28 | 30.22968 | 108.95050 | 35090 ft | 526 kts | 72° |
| 2026-04-15 02:29 | 30.25012 | 109.03168 | 35087 ft | 526 kts | 75° |
| 2026-04-15 02:29 | 30.26921 | 109.11335 | 35093 ft | 526 kts | 75° |
| 2026-04-15 02:30 | 30.28866 | 109.19491 | 35097 ft | 526 kts | 74° |
| 2026-04-15 02:30 | 30.30866 | 109.27639 | 35097 ft | 526 kts | 74° |
| 2026-04-15 02:31 | 30.32877 | 109.35787 | 35104 ft | 527 kts | 74° |
| 2026-04-15 02:31 | 30.34869 | 109.43942 | 35103 ft | 526 kts | 74° |
| 2026-04-15 02:32 | 30.36845 | 109.52105 | 35100 ft | 527 kts | 74° |
| 2026-04-15 02:32 | 30.38794 | 109.60282 | 35101 ft | 527 kts | 77° |
| 2026-04-15 02:33 | 30.40071 | 109.68625 | 35101 ft | 526 kts | 81° |
| 2026-04-15 02:33 | 30.41290 | 109.76988 | 35104 ft | 527 kts | 81° |
| 2026-04-15 02:34 | 30.42527 | 109.85348 | 35100 ft | 526 kts | 81° |
| 2026-04-15 02:34 | 30.43763 | 109.93702 | 35102 ft | 527 kts | 81° |
| 2026-04-15 02:35 | 30.44982 | 110.02096 | 35101 ft | 527 kts | 82° |
| 2026-04-15 02:35 | 30.46188 | 110.10472 | 35103 ft | 527 kts | 82° |
| 2026-04-15 02:36 | 30.47394 | 110.18858 | 35106 ft | 528 kts | 82° |
| 2026-04-15 02:36 | 30.48596 | 110.27260 | 35108 ft | 528 kts | 82° |
| 2026-04-15 02:37 | 30.49795 | 110.35658 | 35106 ft | 528 kts | 82° |
| 2026-04-15 02:37 | 30.50991 | 110.44062 | 35109 ft | 529 kts | 82° |
| 2026-04-15 02:38 | 30.52183 | 110.52484 | 35110 ft | 529 kts | 82° |
| 2026-04-15 02:38 | 30.53361 | 110.60913 | 35116 ft | 530 kts | 82° |
| 2026-04-15 02:39 | 30.54531 | 110.69348 | 35115 ft | 530 kts | 82° |
| 2026-04-15 02:39 | 30.55709 | 110.77791 | 35121 ft | 531 kts | 82° |
| 2026-04-15 02:40 | 30.56886 | 110.86252 | 35124 ft | 531 kts | 82° |
| 2026-04-15 02:40 | 30.58058 | 110.94710 | 35123 ft | 531 kts | 82° |
| 2026-04-15 02:41 | 30.59216 | 111.03178 | 35128 ft | 532 kts | 82° |
| 2026-04-15 02:41 | 30.60367 | 111.11653 | 35126 ft | 532 kts | 82° |
| 2026-04-15 02:42 | 30.61525 | 111.20130 | 35112 ft | 532 kts | 82° |
| 2026-04-15 02:42 | 30.62673 | 111.28619 | 35113 ft | 532 kts | 82° |
| 2026-04-15 02:43 | 30.63812 | 111.37113 | 35112 ft | 532 kts | 82° |
| 2026-04-15 02:43 | 30.64944 | 111.45607 | 35118 ft | 533 kts | 82° |
| 2026-04-15 02:44 | 30.65568 | 111.54153 | 35117 ft | 531 kts | 88° |
| 2026-04-15 02:44 | 30.66004 | 111.62723 | 35115 ft | 531 kts | 89° |
| 2026-04-15 02:45 | 30.66432 | 111.71285 | 35114 ft | 531 kts | 89° |
| 2026-04-15 02:45 | 30.66877 | 111.79852 | 35115 ft | 532 kts | 88° |
| 2026-04-15 02:46 | 30.67326 | 111.88424 | 35115 ft | 532 kts | 89° |
| 2026-04-15 02:46 | 30.67681 | 111.95559 | 35117 ft | 532 kts | 89° |
| 2026-04-15 02:47 | 30.68168 | 112.04153 | 35113 ft | 533 kts | 87° |
| 2026-04-15 02:47 | 30.68798 | 112.12745 | 35115 ft | 534 kts | 86° |
| 2026-04-15 02:48 | 30.69435 | 112.21345 | 35114 ft | 534 kts | 87° |
| 2026-04-15 02:48 | 30.70014 | 112.29955 | 35114 ft | 535 kts | 88° |
| 2026-04-15 02:49 | 30.70567 | 112.38569 | 35111 ft | 535 kts | 88° |
| 2026-04-15 02:49 | 30.71126 | 112.47191 | 35111 ft | 535 kts | 88° |
| 2026-04-15 02:50 | 30.71689 | 112.55816 | 35111 ft | 535 kts | 87° |
| 2026-04-15 02:50 | 30.72259 | 112.64447 | 35107 ft | 536 kts | 88° |
| 2026-04-15 02:51 | 30.72812 | 112.73085 | 35103 ft | 536 kts | 88° |
| 2026-04-15 02:51 | 30.73353 | 112.81738 | 35100 ft | 537 kts | 88° |
| 2026-04-15 02:52 | 30.73887 | 112.90398 | 35097 ft | 538 kts | 88° |
| 2026-04-15 02:52 | 30.74422 | 112.99074 | 35101 ft | 538 kts | 88° |
| 2026-04-15 02:53 | 30.74957 | 113.07758 | 35099 ft | 539 kts | 88° |
| 2026-04-15 02:53 | 30.75461 | 113.16453 | 35102 ft | 539 kts | 89° |
| 2026-04-15 02:54 | 30.75733 | 113.25160 | 35105 ft | 539 kts | 91° |
| 2026-04-15 02:54 | 30.75872 | 113.33870 | 35105 ft | 539 kts | 91° |
| 2026-04-15 02:55 | 30.76047 | 113.42586 | 35104 ft | 540 kts | 91° |
| 2026-04-15 02:55 | 30.76271 | 113.51313 | 35101 ft | 540 kts | 90° |
| 2026-04-15 02:56 | 30.76500 | 113.60041 | 35098 ft | 540 kts | 91° |
| 2026-04-15 02:56 | 30.76707 | 113.68773 | 35097 ft | 541 kts | 91° |
| 2026-04-15 02:57 | 30.76893 | 113.77517 | 35091 ft | 541 kts | 91° |
| 2026-04-15 02:57 | 30.77081 | 113.86272 | 35096 ft | 542 kts | 91° |
| 2026-04-15 02:58 | 30.77261 | 113.95033 | 35102 ft | 542 kts | 91° |
| 2026-04-15 02:58 | 30.77457 | 114.03808 | 35110 ft | 543 kts | 90° |
| 2026-04-15 02:59 | 30.77786 | 114.12599 | 35119 ft | 544 kts | 89° |
| 2026-04-15 02:59 | 30.78761 | 114.21328 | 35122 ft | 547 kts | 75° |
| 2026-04-15 03:00 | 30.81304 | 114.29648 | 35124 ft | 547 kts | 68° |
| 2026-04-15 03:00 | 30.84001 | 114.37924 | 35121 ft | 547 kts | 68° |
| 2026-04-15 03:01 | 30.86644 | 114.46235 | 35115 ft | 548 kts | 69° |
| 2026-04-15 03:01 | 30.89300 | 114.54543 | 35110 ft | 548 kts | 68° |
| 2026-04-15 03:02 | 30.91998 | 114.62835 | 35104 ft | 548 kts | 68° |
| 2026-04-15 03:02 | 30.94700 | 114.71143 | 35110 ft | 548 kts | 68° |
| 2026-04-15 03:03 | 30.97385 | 114.79461 | 35113 ft | 548 kts | 68° |
| 2026-04-15 03:03 | 31.00060 | 114.87785 | 35115 ft | 548 kts | 68° |
| 2026-04-15 03:04 | 31.02734 | 114.96106 | 35111 ft | 548 kts | 68° |
| 2026-04-15 03:04 | 31.05409 | 115.04432 | 35114 ft | 548 kts | 68° |
| 2026-04-15 03:05 | 31.08064 | 115.12755 | 35117 ft | 547 kts | 68° |
| 2026-04-15 03:05 | 31.10713 | 115.21080 | 35119 ft | 547 kts | 68° |
| 2026-04-15 03:06 | 31.13345 | 115.29394 | 35121 ft | 546 kts | 69° |
| 2026-04-15 03:06 | 31.16009 | 115.37695 | 35119 ft | 546 kts | 68° |
| 2026-04-15 03:07 | 31.18709 | 115.45962 | 35118 ft | 545 kts | 68° |
| 2026-04-15 03:07 | 31.21389 | 115.54237 | 35113 ft | 544 kts | 68° |
| 2026-04-15 03:08 | 31.24043 | 115.62522 | 35116 ft | 544 kts | 68° |
| 2026-04-15 03:08 | 31.26697 | 115.70799 | 35113 ft | 544 kts | 68° |
| 2026-04-15 03:09 | 31.29329 | 115.79009 | 35119 ft | 543 kts | 68° |
| 2026-04-15 03:09 | 31.31973 | 115.87286 | 35116 ft | 543 kts | 68° |
| 2026-04-15 03:10 | 31.34632 | 115.95564 | 35121 ft | 544 kts | 68° |
| 2026-04-15 03:10 | 31.37343 | 116.03821 | 35123 ft | 544 kts | 68° |
| 2026-04-15 03:11 | 31.40053 | 116.12090 | 35125 ft | 544 kts | 68° |
| 2026-04-15 03:11 | 31.42742 | 116.20376 | 35129 ft | 545 kts | 68° |
| 2026-04-15 03:12 | 31.45416 | 116.28676 | 35134 ft | 545 kts | 68° |
| 2026-04-15 03:12 | 31.48090 | 116.36981 | 35134 ft | 545 kts | 68° |
| 2026-04-15 03:13 | 31.50762 | 116.45293 | 35132 ft | 545 kts | 68° |
| 2026-04-15 03:13 | 31.53431 | 116.53605 | 35132 ft | 545 kts | 68° |
| 2026-04-15 03:14 | 31.56099 | 116.61921 | 35130 ft | 545 kts | 68° |
| 2026-04-15 03:14 | 31.58757 | 116.70236 | 35138 ft | 545 kts | 68° |
| 2026-04-15 03:15 | 31.61408 | 116.78564 | 35135 ft | 545 kts | 68° |
| 2026-04-15 03:15 | 31.64052 | 116.86902 | 35126 ft | 545 kts | 68° |
| 2026-04-15 03:16 | 31.66696 | 116.95243 | 35128 ft | 545 kts | 68° |
| 2026-04-15 03:16 | 31.69325 | 117.03589 | 35121 ft | 545 kts | 68° |
| 2026-04-15 03:17 | 31.71921 | 117.11958 | 35123 ft | 546 kts | 68° |
| 2026-04-15 03:17 | 31.74498 | 117.20346 | 35122 ft | 546 kts | 69° |
| 2026-04-15 03:18 | 31.76667 | 117.28878 | 35116 ft | 546 kts | 81° |
| 2026-04-15 03:18 | 31.76998 | 117.37743 | 35107 ft | 542 kts | 98° |
| 2026-04-15 03:19 | 31.76381 | 117.46567 | 35105 ft | 542 kts | 97° |
| 2026-04-15 03:19 | 31.75767 | 117.55410 | 35104 ft | 543 kts | 97° |
| 2026-04-15 03:20 | 31.75147 | 117.64258 | 35103 ft | 544 kts | 97° |
| 2026-04-15 03:20 | 31.74524 | 117.73121 | 35109 ft | 545 kts | 98° |
| 2026-04-15 03:21 | 31.73894 | 117.81990 | 35113 ft | 545 kts | 98° |
| 2026-04-15 03:21 | 31.72928 | 117.95312 | 35109 ft | 546 kts | 98° |
| 2026-04-15 03:22 | 31.72272 | 118.04200 | 35111 ft | 546 kts | 98° |
| 2026-04-15 03:22 | 31.71614 | 118.13093 | 35110 ft | 547 kts | 98° |
| 2026-04-15 03:23 | 31.70990 | 118.22002 | 35105 ft | 548 kts | 97° |
| 2026-04-15 03:23 | 31.70391 | 118.30925 | 35107 ft | 548 kts | 97° |
| 2026-04-15 03:24 | 31.69770 | 118.39852 | 35112 ft | 549 kts | 98° |
| 2026-04-15 03:24 | 31.69122 | 118.48789 | 35112 ft | 550 kts | 98° |
| 2026-04-15 03:25 | 31.68471 | 118.57728 | 35119 ft | 550 kts | 98° |
| 2026-04-15 03:25 | 31.67824 | 118.66694 | 35121 ft | 551 kts | 98° |
| 2026-04-15 03:26 | 31.67162 | 118.75652 | 35134 ft | 552 kts | 98° |
| 2026-04-15 03:26 | 31.66494 | 118.84632 | 35127 ft | 552 kts | 98° |
| 2026-04-15 03:27 | 31.65820 | 118.93612 | 35133 ft | 553 kts | 98° |
| 2026-04-15 03:27 | 31.65142 | 119.02604 | 35126 ft | 553 kts | 98° |
| 2026-04-15 03:28 | 31.64552 | 119.11620 | 35126 ft | 554 kts | 96° |
| 2026-04-15 03:28 | 31.64206 | 119.19125 | 35121 ft | 555 kts | 95° |
| 2026-04-15 03:29 | 31.63869 | 119.28181 | 35120 ft | 556 kts | 95° |
| 2026-04-15 03:29 | 31.63691 | 119.32716 | 34924 ft | 556 kts | 95° |
| 2026-04-15 03:29 | 31.63496 | 119.37236 | 34693 ft | 555 kts | 95° |
| 2026-04-15 03:30 | 31.63286 | 119.41759 | 34464 ft | 554 kts | 95° |
| 2026-04-15 03:30 | 31.63064 | 119.46265 | 34235 ft | 553 kts | 95° |
| 2026-04-15 03:30 | 31.62837 | 119.50775 | 34004 ft | 553 kts | 95° |
| 2026-04-15 03:30 | 31.62613 | 119.55271 | 33741 ft | 552 kts | 95° |
| 2026-04-15 03:31 | 31.62396 | 119.59764 | 33482 ft | 551 kts | 95° |
| 2026-04-15 03:31 | 31.62182 | 119.64254 | 33226 ft | 551 kts | 95° |
| 2026-04-15 03:31 | 31.61967 | 119.68736 | 32962 ft | 550 kts | 95° |
| 2026-04-15 03:31 | 31.61757 | 119.73212 | 32705 ft | 549 kts | 94° |
| 2026-04-15 03:32 | 31.61550 | 119.77678 | 32453 ft | 548 kts | 94° |
| 2026-04-15 03:32 | 31.61346 | 119.82137 | 32203 ft | 547 kts | 94° |
| 2026-04-15 03:32 | 31.61145 | 119.86585 | 31954 ft | 546 kts | 94° |
| 2026-04-15 03:32 | 31.60944 | 119.91021 | 31703 ft | 544 kts | 94° |
| 2026-04-15 03:33 | 31.60738 | 119.95445 | 31459 ft | 543 kts | 94° |
| 2026-04-15 03:33 | 31.60529 | 119.99874 | 31226 ft | 542 kts | 94° |
| 2026-04-15 03:33 | 31.60321 | 120.04279 | 30985 ft | 541 kts | 94° |
| 2026-04-15 03:33 | 31.60109 | 120.08681 | 30747 ft | 540 kts | 94° |
| 2026-04-15 03:34 | 31.59896 | 120.13071 | 30104 ft | 540 kts | 94° |
| 2026-04-15 03:34 | 31.59677 | 120.17504 | 28812 ft | 548 kts | 94° |
| 2026-04-15 03:34 | 31.59453 | 120.21970 | 27977 ft | 546 kts | 94° |
| 2026-04-15 03:34 | 31.59234 | 120.26375 | 27356 ft | 538 kts | 94° |
| 2026-04-15 03:35 | 31.58885 | 120.30724 | 26638 ft | 533 kts | 100° |
| 2026-04-15 03:35 | 31.58064 | 120.34927 | 25939 ft | 526 kts | 109° |
| 2026-04-15 03:35 | 31.56888 | 120.38954 | 25249 ft | 520 kts | 111° |
| 2026-04-15 03:35 | 31.55705 | 120.42936 | 24562 ft | 514 kts | 111° |
| 2026-04-15 03:36 | 31.54542 | 120.46878 | 23890 ft | 509 kts | 110° |
| 2026-04-15 03:36 | 31.53391 | 120.50785 | 23146 ft | 505 kts | 110° |
| 2026-04-15 03:36 | 31.52252 | 120.54646 | 22483 ft | 497 kts | 110° |
| 2026-04-15 03:36 | 31.51146 | 120.58391 | 21835 ft | 475 kts | 110° |
| 2026-04-15 03:37 | 31.50081 | 120.61991 | 21235 ft | 465 kts | 110° |
| 2026-04-15 03:37 | 31.49020 | 120.65563 | 20619 ft | 461 kts | 110° |
| 2026-04-15 03:37 | 31.47968 | 120.69097 | 20043 ft | 457 kts | 110° |
| 2026-04-15 03:37 | 31.46926 | 120.72600 | 19476 ft | 454 kts | 110° |
| 2026-04-15 03:38 | 31.45892 | 120.76070 | 18927 ft | 450 kts | 110° |
| 2026-04-15 03:38 | 31.44863 | 120.79514 | 18381 ft | 447 kts | 110° |
| 2026-04-15 03:38 | 31.43826 | 120.82928 | 17771 ft | 443 kts | 110° |
| 2026-04-15 03:38 | 31.42780 | 120.86303 | 17223 ft | 438 kts | 111° |
| 2026-04-15 03:39 | 31.41737 | 120.89632 | 16669 ft | 434 kts | 111° |
| 2026-04-15 03:39 | 31.40673 | 120.92915 | 16086 ft | 429 kts | 115° |
| 2026-04-15 03:39 | 31.39254 | 120.95959 | 15555 ft | 422 kts | 126° |
| 2026-04-15 03:39 | 31.37476 | 120.98622 | 15443 ft | 413 kts | 132° |
| 2026-04-15 03:40 | 31.35636 | 121.01212 | 15284 ft | 414 kts | 131° |
| 2026-04-15 03:40 | 31.33812 | 121.03805 | 15090 ft | 412 kts | 131° |
| 2026-04-15 03:40 | 31.32000 | 121.06391 | 14905 ft | 411 kts | 131° |
| 2026-04-15 03:40 | 31.30183 | 121.08977 | 14697 ft | 410 kts | 131° |
| 2026-04-15 03:41 | 31.28375 | 121.11546 | 14515 ft | 409 kts | 132° |
| 2026-04-15 03:41 | 31.26570 | 121.14101 | 14324 ft | 407 kts | 132° |
| 2026-04-15 03:41 | 31.24766 | 121.16649 | 14136 ft | 406 kts | 132° |
| 2026-04-15 03:41 | 31.22970 | 121.19186 | 13948 ft | 405 kts | 132° |
| 2026-04-15 03:42 | 31.21178 | 121.21717 | 13750 ft | 404 kts | 132° |
| 2026-04-15 03:42 | 31.19390 | 121.24241 | 13559 ft | 402 kts | 132° |
| 2026-04-15 03:42 | 31.17608 | 121.26750 | 13370 ft | 401 kts | 132° |
| 2026-04-15 03:42 | 31.15831 | 121.29250 | 13179 ft | 400 kts | 132° |
| 2026-04-15 03:43 | 31.14066 | 121.31755 | 12999 ft | 399 kts | 130° |
| 2026-04-15 03:43 | 31.12592 | 121.34489 | 12817 ft | 400 kts | 118° |
| 2026-04-15 03:43 | 31.11570 | 121.37500 | 12437 ft | 399 kts | 107° |
| 2026-04-15 03:43 | 31.10863 | 121.40627 | 12073 ft | 396 kts | 105° |
| 2026-04-15 03:44 | 31.10161 | 121.43720 | 11715 ft | 393 kts | 105° |
| 2026-04-15 03:44 | 31.09456 | 121.46795 | 11356 ft | 390 kts | 106° |
| 2026-04-15 03:44 | 31.08756 | 121.49831 | 11038 ft | 384 kts | 106° |
| 2026-04-15 03:44 | 31.08078 | 121.52766 | 10903 ft | 369 kts | 106° |
| 2026-04-15 03:45 | 31.07431 | 121.55566 | 10789 ft | 356 kts | 106° |
| 2026-04-15 03:45 | 31.06789 | 121.58342 | 10663 ft | 344 kts | 106° |
| 2026-04-15 03:45 | 31.06176 | 121.60993 | 10547 ft | 333 kts | 106° |
| 2026-04-15 03:45 | 31.05592 | 121.63523 | 10424 ft | 319 kts | 106° |
| 2026-04-15 03:46 | 31.05026 | 121.65968 | 10104 ft | 308 kts | 106° |
| 2026-04-15 03:46 | 31.04277 | 121.68318 | 9783 ft | 303 kts | 121° |
| 2026-04-15 03:46 | 31.03029 | 121.70242 | 9635 ft | 295 kts | 139° |
| 2026-04-15 03:46 | 31.01425 | 121.71631 | 9510 ft | 289 kts | 155° |
| 2026-04-15 03:47 | 30.99573 | 121.72479 | 9291 ft | 285 kts | 166° |
| 2026-04-15 03:47 | 30.97683 | 121.73189 | 9038 ft | 285 kts | 166° |
| 2026-04-15 03:47 | 30.95804 | 121.73897 | 8779 ft | 284 kts | 165° |
| 2026-04-15 03:47 | 30.93928 | 121.74604 | 8521 ft | 283 kts | 165° |
| 2026-04-15 03:48 | 30.92061 | 121.75308 | 8288 ft | 282 kts | 165° |
| 2026-04-15 03:48 | 30.90203 | 121.76011 | 8040 ft | 280 kts | 165° |
| 2026-04-15 03:48 | 30.88348 | 121.76712 | 7794 ft | 280 kts | 165° |
| 2026-04-15 03:48 | 30.86502 | 121.77410 | 7554 ft | 279 kts | 165° |
| 2026-04-15 03:49 | 30.84662 | 121.78105 | 7312 ft | 277 kts | 165° |
| 2026-04-15 03:49 | 30.82831 | 121.78797 | 7070 ft | 276 kts | 165° |
| 2026-04-15 03:49 | 30.81006 | 121.79486 | 6828 ft | 275 kts | 164° |
| 2026-04-15 03:49 | 30.79190 | 121.80170 | 6576 ft | 273 kts | 164° |
| 2026-04-15 03:50 | 30.77385 | 121.80845 | 6304 ft | 272 kts | 164° |
| 2026-04-15 03:50 | 30.75618 | 121.81561 | 6119 ft | 267 kts | 155° |
| 2026-04-15 03:50 | 30.74264 | 121.82952 | 6010 ft | 259 kts | 121° |
| 2026-04-15 03:50 | 30.73752 | 121.84912 | 5734 ft | 255 kts | 87° |
| 2026-04-15 03:51 | 30.74126 | 121.86898 | 5403 ft | 252 kts | 69° |
| 2026-04-15 03:51 | 30.74678 | 121.88833 | 5091 ft | 252 kts | 69° |
| 2026-04-15 03:51 | 30.75255 | 121.90731 | 4946 ft | 243 kts | 61° |
| 2026-04-15 03:51 | 30.76342 | 121.92101 | 4841 ft | 226 kts | 25° |
| 2026-04-15 03:52 | 30.77831 | 121.92449 | 4608 ft | 218 kts | 350° |
| 2026-04-15 03:52 | 30.79279 | 121.91978 | 4346 ft | 215 kts | 341° |
| 2026-04-15 03:52 | 30.80690 | 121.91432 | 4105 ft | 212 kts | 341° |
| 2026-04-15 03:52 | 30.82074 | 121.90907 | 3973 ft | 204 kts | 342° |
| 2026-04-15 03:53 | 30.83392 | 121.90412 | 3890 ft | 195 kts | 342° |
| 2026-04-15 03:53 | 30.84674 | 121.89931 | 3753 ft | 193 kts | 342° |
| 2026-04-15 03:53 | 30.85941 | 121.89456 | 3589 ft | 191 kts | 342° |
| 2026-04-15 03:53 | 30.87206 | 121.88981 | 3434 ft | 190 kts | 342° |
| 2026-04-15 03:54 | 30.88466 | 121.88508 | 3276 ft | 190 kts | 342° |
| 2026-04-15 03:54 | 30.89726 | 121.88035 | 3129 ft | 190 kts | 342° |
| 2026-04-15 03:54 | 30.90985 | 121.87562 | 3039 ft | 190 kts | 342° |
| 2026-04-15 03:55 | 30.93503 | 121.86616 | 3014 ft | 190 kts | 343° |
| 2026-04-15 03:55 | 30.94729 | 121.86155 | 3029 ft | 177 kts | 342° |
| 2026-04-15 03:55 | 30.95845 | 121.85735 | 3008 ft | 160 kts | 342° |
| 2026-04-15 03:55 | 30.96849 | 121.85357 | 3027 ft | 146 kts | 343° |
| 2026-04-15 03:56 | 30.97797 | 121.85001 | 2960 ft | 141 kts | 343° |
| 2026-04-15 03:56 | 30.98720 | 121.84654 | 2834 ft | 138 kts | 343° |
| 2026-04-15 03:56 | 30.99630 | 121.84312 | 2686 ft | 137 kts | 343° |
| 2026-04-15 03:56 | 31.00535 | 121.83971 | 2507 ft | 136 kts | 343° |
| 2026-04-15 03:57 | 31.01438 | 121.83631 | 2331 ft | 136 kts | 343° |
| 2026-04-15 03:57 | 31.02339 | 121.83292 | 2147 ft | 136 kts | 344° |
| 2026-04-15 03:57 | 31.03225 | 121.82958 | 1961 ft | 135 kts | 343° |
| 2026-04-15 03:57 | 31.04118 | 121.82622 | 1787 ft | 135 kts | 344° |
| 2026-04-15 03:58 | 31.05020 | 121.82282 | 1604 ft | 135 kts | 343° |
| 2026-04-15 03:58 | 31.05898 | 121.81949 | 1431 ft | 134 kts | 343° |
| 2026-04-15 03:58 | 31.06785 | 121.81616 | 1241 ft | 134 kts | 343° |
| 2026-04-15 03:58 | 31.07673 | 121.81281 | 1054 ft | 134 kts | 343° |
| 2026-04-15 03:59 | 31.08562 | 121.80946 | 847 ft | 134 kts | 344° |
| 2026-04-15 03:59 | 31.09447 | 121.80612 | 682 ft | 133 kts | 344° |
| 2026-04-15 03:59 | 31.10329 | 121.80280 | 489 ft | 134 kts | 345° |
| 2026-04-15 03:59 | 31.11215 | 121.79947 | 320 ft | 134 kts | 344° |
| 2026-04-15 04:00 | 31.12105 | 121.79607 | 162 ft | 135 kts | 343° |
| 2026-04-15 04:00 | 31.12995 | 121.79265 | 37 ft | 129 kts | 344° |
| 2026-04-15 04:00 | 31.13741 | 121.78991 | 23 ft | 91 kts | 343° |
| 2026-04-15 04:00 | 31.14178 | 121.78828 | 23 ft | 41 kts | 342° |
| 2026-04-15 04:01 | 31.14405 | 121.78747 | 23 ft | 32 kts | 348° |
| 2026-04-15 04:01 | 31.14576 | 121.78752 | 23 ft | 20 kts | 9° |
| 2026-04-15 04:01 | 31.14679 | 121.78773 | 23 ft | 13 kts | 10° |
| 2026-04-15 04:01 | 31.14734 | 121.78834 | 25 ft | 12 kts | 72° |
| 2026-04-15 04:02 | 31.14765 | 121.78946 | 25 ft | 17 kts | 72° |
| 2026-04-15 04:02 | 31.14803 | 121.79083 | 25 ft | 19 kts | 71° |
| 2026-04-15 04:02 | 31.14846 | 121.79239 | 24 ft | 21 kts | 72° |
| 2026-04-15 04:02 | 31.14881 | 121.79366 | 24 ft | 14 kts | 72° |
| 2026-04-15 04:03 | 31.14915 | 121.79486 | 23 ft | 14 kts | 72° |
| 2026-04-15 04:03 | 31.14935 | 121.79582 | 23 ft | 10 kts | 96° |
| 2026-04-15 04:03 | 31.14920 | 121.79657 | 23 ft | 10 kts | 76° |
| 2026-04-15 04:03 | 31.14935 | 121.79713 | 25 ft | 6 kts | 72° |
| 2026-04-15 04:04 | 31.14940 | 121.79730 | 23 ft | 0 kts | 72° |